createdAt,value
2022-12-01T00:01:15.575Z,76.53
2022-12-01T00:03:42.971Z,76.52
2022-12-01T00:06:12.768Z,76.49
2022-12-01T00:08:39.567Z,76.48
2022-12-01T00:11:09.516Z,76.50
2022-12-01T00:13:36.863Z,76.52
2022-12-01T00:16:14.394Z,76.47
2022-12-01T00:18:41.319Z,76.46
2022-12-01T00:21:14.809Z,76.41
2022-12-01T00:23:47.409Z,76.52
2022-12-01T00:26:15.809Z,76.54
2022-12-01T00:28:42.730Z,76.50
2022-12-01T00:31:10.886Z,76.43
2022-12-01T00:33:38.268Z,76.40
2022-12-01T00:36:05.911Z,76.31
2022-12-01T00:38:33.587Z,76.38
2022-12-01T00:41:00.628Z,76.35
2022-12-01T00:43:27.562Z,76.37
2022-12-01T00:45:56.465Z,76.38
2022-12-01T00:48:23.893Z,76.33
2022-12-01T00:50:52.689Z,76.33
2022-12-01T00:53:19.810Z,76.42
2022-12-01T00:55:46.723Z,76.43
2022-12-01T00:58:13.545Z,76.40
2022-12-01T01:00:40.338Z,76.81
2022-12-01T01:03:07.698Z,76.56
2022-12-01T01:05:39.881Z,76.47
2022-12-01T01:08:08.457Z,76.46
2022-12-01T01:10:41.677Z,76.37
2022-12-01T01:13:09.221Z,76.34
2022-12-01T01:15:36.424Z,76.72
2022-12-01T01:18:04.137Z,76.50
2022-12-01T01:20:31.355Z,76.50
2022-12-01T01:22:58.207Z,76.48
2022-12-01T01:25:25.543Z,76.48
2022-12-01T01:27:52.407Z,76.35
2022-12-01T01:30:19.426Z,76.36
2022-12-01T01:32:46.194Z,76.34
2022-12-01T01:35:13.051Z,76.38
2022-12-01T01:37:39.839Z,76.41
2022-12-01T01:40:07.084Z,76.38
2022-12-01T01:42:34.035Z,76.37
2022-12-01T01:45:00.884Z,76.27
2022-12-01T01:47:30.632Z,76.22
2022-12-01T01:50:05.855Z,76.34
2022-12-01T01:52:36.567Z,76.57
2022-12-01T01:55:03.575Z,76.37
2022-12-01T01:57:33.398Z,76.70
2022-12-01T02:00:12.952Z,76.38
2022-12-01T02:02:44.944Z,76.28
2022-12-01T02:05:25.042Z,76.43
2022-12-01T02:07:55.225Z,76.35
2022-12-01T02:10:31.036Z,76.72
2022-12-01T02:13:30.518Z,76.72
2022-12-01T02:16:03.115Z,76.94
2022-12-01T02:18:58.851Z,77.03
2022-12-01T02:21:37.226Z,77.10
2022-12-01T02:24:45.692Z,77.08
2022-12-01T02:27:29.572Z,77.12
2022-12-01T02:30:25.700Z,77.32
2022-12-01T02:32:56.962Z,77.31
2022-12-01T02:35:41.670Z,77.18
2022-12-01T02:38:08.398Z,77.08
2022-12-01T02:41:07.528Z,76.91
2022-12-01T02:43:46.110Z,76.63
2022-12-01T02:46:19.927Z,76.64
2022-12-01T02:48:51.202Z,76.56
2022-12-01T02:51:24.760Z,76.59
2022-12-01T02:53:52.675Z,76.57
2022-12-01T02:56:22.282Z,76.82
2022-12-01T02:58:49.122Z,76.68
2022-12-01T03:01:32.393Z,76.61
2022-12-01T03:04:37.055Z,76.53
2022-12-01T03:07:54.440Z,76.44
2022-12-01T03:10:45.602Z,76.46
2022-12-01T03:13:24.444Z,76.55
2022-12-01T03:16:09.139Z,76.46
2022-12-01T03:18:42.390Z,76.35
2022-12-01T03:21:38.112Z,76.34
2022-12-01T03:24:11.646Z,76.71
2022-12-01T03:26:42.508Z,76.51
2022-12-01T03:29:16.810Z,76.53
2022-12-01T03:31:48.026Z,76.64
2022-12-01T03:34:29.494Z,76.48
2022-12-01T03:37:01.640Z,76.38
2022-12-01T03:39:35.826Z,76.33
2022-12-01T03:42:11.315Z,76.36
2022-12-01T03:44:54.075Z,76.36
2022-12-01T03:47:24.975Z,76.32
2022-12-01T03:49:53.537Z,76.31
2022-12-01T03:52:23.112Z,76.38
2022-12-01T03:55:02.412Z,76.31
2022-12-01T03:57:40.873Z,76.53
2022-12-01T04:00:08.553Z,76.60
2022-12-01T04:02:37.472Z,76.78
2022-12-01T04:05:09.396Z,76.63
2022-12-01T04:07:37.944Z,76.42
2022-12-01T04:10:06.311Z,76.48
2022-12-01T04:12:33.654Z,76.39
2022-12-01T04:15:03.259Z,76.44
2022-12-01T04:17:30.806Z,76.50
2022-12-01T04:19:57.887Z,76.45
2022-12-01T04:22:25.384Z,76.43
2022-12-01T04:24:53.143Z,76.65
2022-12-01T04:27:20.375Z,76.58
2022-12-01T04:29:47.892Z,76.54
2022-12-01T04:32:14.925Z,76.52
2022-12-01T04:34:42.220Z,76.48
2022-12-01T04:37:10.118Z,76.66
2022-12-01T04:39:37.267Z,76.56
2022-12-01T04:42:04.749Z,76.55
2022-12-01T04:44:34.779Z,76.53
2022-12-01T04:47:03.904Z,76.56
2022-12-01T04:49:31.566Z,76.60
2022-12-01T04:51:58.448Z,76.65
2022-12-01T04:54:25.996Z,76.58
2022-12-01T04:56:53.051Z,76.58
2022-12-01T04:59:19.879Z,76.69
2022-12-01T05:01:48.225Z,76.68
2022-12-01T05:04:15.782Z,76.69
2022-12-01T05:06:43.042Z,76.75
2022-12-01T05:09:17.210Z,76.83
2022-12-01T05:11:45.004Z,76.75
2022-12-01T05:14:11.785Z,76.85
2022-12-01T05:16:38.842Z,76.93
2022-12-01T05:19:24.844Z,76.89
2022-12-01T05:21:52.111Z,76.88
2022-12-01T05:24:20.113Z,76.92
2022-12-01T05:26:47.132Z,76.86
2022-12-01T05:29:14.124Z,76.96
2022-12-01T05:31:41.218Z,77.41
2022-12-01T05:34:08.371Z,77.54
2022-12-01T05:36:35.250Z,77.70
2022-12-01T05:39:02.101Z,77.73
2022-12-01T05:41:28.851Z,77.73
2022-12-01T05:43:55.635Z,77.67
2022-12-01T05:46:22.556Z,77.73
2022-12-01T05:48:49.407Z,77.82
2022-12-01T05:51:17.303Z,77.74
2022-12-01T05:53:44.801Z,77.57
2022-12-01T05:56:12.178Z,77.18
2022-12-01T05:58:39.397Z,77.12
2022-12-01T06:01:06.191Z,77.14
2022-12-01T06:03:33.138Z,77.59
2022-12-01T06:05:59.982Z,77.85
2022-12-01T06:08:26.961Z,77.97
2022-12-01T06:10:53.761Z,77.96
2022-12-01T06:13:20.609Z,77.59
2022-12-01T06:15:56.302Z,77.34
2022-12-01T06:18:23.950Z,77.23
2022-12-01T06:20:50.725Z,77.22
2022-12-01T06:23:17.528Z,77.27
2022-12-01T06:25:44.574Z,77.70
2022-12-01T06:28:11.344Z,77.81
2022-12-01T06:30:38.196Z,77.82
2022-12-01T06:33:05.091Z,77.85
2022-12-01T06:35:31.921Z,77.82
2022-12-01T06:37:58.768Z,77.38
2022-12-01T06:40:25.610Z,77.29
2022-12-01T06:42:52.478Z,77.26
2022-12-01T06:45:19.330Z,77.46
2022-12-01T06:47:48.541Z,77.62
2022-12-01T06:50:15.422Z,77.85
2022-12-01T06:52:42.196Z,77.60
2022-12-01T06:55:09.289Z,77.80
2022-12-01T06:57:36.221Z,77.94
2022-12-01T07:00:04.447Z,77.96
2022-12-01T07:02:31.747Z,78.05
2022-12-01T07:04:58.665Z,77.81
2022-12-01T07:07:25.506Z,77.89
2022-12-01T07:09:52.365Z,77.96
2022-12-01T07:12:19.136Z,77.71
2022-12-01T07:14:45.987Z,77.82
2022-12-01T07:17:13.878Z,77.86
2022-12-01T07:19:40.738Z,77.54
2022-12-01T07:22:07.538Z,77.82
2022-12-01T07:24:34.414Z,77.90
2022-12-01T07:27:01.226Z,77.90
2022-12-01T07:29:28.023Z,77.96
2022-12-01T07:31:55.014Z,77.86
2022-12-01T07:34:21.801Z,77.83
2022-12-01T07:36:48.634Z,77.76
2022-12-01T07:51:39.854Z,77.52
2022-12-01T07:54:07.815Z,77.64
2022-12-01T07:56:34.627Z,77.70
2022-12-01T07:59:01.375Z,77.67
2022-12-01T08:01:28.132Z,77.59
2022-12-01T08:03:57.526Z,77.51
2022-12-01T08:06:25.598Z,77.34
2022-12-01T08:08:52.895Z,77.42
2022-12-01T08:11:25.696Z,77.40
2022-12-01T08:13:53.470Z,77.38
2022-12-01T08:16:22.546Z,77.35
2022-12-01T08:18:49.957Z,77.31
2022-12-01T08:21:18.776Z,77.29
2022-12-01T08:23:45.647Z,77.16
2022-12-01T08:26:15.461Z,76.81
2022-12-01T08:28:43.450Z,76.84
2022-12-01T08:31:14.813Z,77.05
2022-12-01T08:33:41.758Z,76.86
2022-12-01T08:36:09.126Z,76.66
2022-12-01T08:38:36.248Z,76.78
2022-12-01T08:41:08.392Z,76.98
2022-12-01T08:46:34.977Z,77.00
2022-12-01T08:49:03.083Z,77.03
2022-12-01T08:51:30.208Z,77.03
2022-12-01T08:53:58.563Z,77.00
2022-12-01T08:56:29.324Z,77.03
2022-12-01T08:58:56.221Z,76.69
2022-12-01T09:01:23.206Z,76.53
2022-12-01T09:04:05.318Z,76.49
2022-12-01T09:06:43.334Z,76.64
2022-12-01T09:09:12.698Z,76.86
2022-12-01T09:11:40.331Z,76.95
2022-12-01T09:14:07.100Z,76.92
2022-12-01T09:16:33.939Z,76.93
2022-12-01T09:19:00.875Z,76.89
2022-12-01T09:21:32.788Z,76.79
2022-12-01T09:24:01.017Z,76.74
2022-12-01T09:26:28.730Z,76.68
2022-12-01T09:28:58.072Z,76.63
2022-12-01T09:31:25.466Z,76.63
2022-12-01T09:33:56.580Z,76.55
2022-12-01T09:36:24.053Z,76.48
2022-12-01T09:38:50.835Z,76.45
2022-12-01T09:41:26.178Z,76.38
2022-12-01T09:44:06.030Z,76.28
2022-12-01T09:46:41.521Z,76.25
2022-12-01T09:49:22.852Z,76.21
2022-12-01T09:51:54.700Z,76.14
2022-12-01T09:54:21.736Z,76.06
2022-12-01T09:56:53.329Z,76.03
2022-12-01T09:59:26.321Z,75.97
2022-12-01T10:02:00.316Z,75.94
2022-12-01T10:04:41.902Z,75.90
2022-12-01T10:07:29.782Z,75.85
2022-12-01T10:10:00.097Z,75.71
2022-12-01T10:12:32.331Z,75.79
2022-12-01T10:15:09.349Z,75.46
2022-12-01T10:17:52.641Z,75.47
2022-12-01T10:20:28.560Z,75.62
2022-12-01T10:23:16.687Z,75.63
2022-12-01T10:26:10.627Z,75.27
2022-12-01T10:29:09.798Z,75.13
2022-12-01T10:31:53.253Z,75.07
2022-12-01T10:34:24.400Z,75.07
2022-12-01T10:36:51.375Z,75.04
2022-12-01T10:39:38.546Z,74.99
2022-12-01T10:42:35.647Z,74.85
2022-12-01T10:45:15.797Z,74.81
2022-12-01T10:48:07.151Z,74.73
2022-12-01T10:50:34.463Z,74.69
2022-12-01T10:53:01.391Z,75.03
2022-12-01T10:55:35.000Z,75.14
2022-12-01T10:58:13.753Z,75.17
2022-12-01T11:00:58.957Z,75.19
2022-12-01T11:03:35.890Z,75.19
2022-12-01T11:06:05.924Z,75.15
2022-12-01T11:08:46.771Z,75.16
2022-12-01T11:11:33.656Z,75.13
2022-12-01T11:14:05.136Z,74.68
2022-12-01T11:16:36.944Z,74.57
2022-12-01T11:19:31.143Z,74.53
2022-12-01T11:22:00.705Z,74.46
2022-12-01T11:24:42.529Z,74.41
2022-12-01T11:27:31.736Z,74.36
2022-12-01T11:30:04.934Z,74.34
2022-12-01T11:32:35.598Z,74.31
2022-12-01T11:35:05.065Z,74.31
2022-12-01T11:37:38.035Z,74.29
2022-12-01T11:40:17.600Z,74.25
2022-12-01T11:42:49.504Z,74.21
2022-12-01T11:45:25.031Z,74.18
2022-12-01T11:48:20.863Z,74.12
2022-12-01T11:51:01.565Z,74.08
2022-12-01T11:53:31.250Z,74.03
2022-12-01T11:56:13.246Z,74.10
2022-12-01T11:58:40.360Z,74.00
2022-12-01T12:01:22.125Z,73.99
2022-12-01T12:04:18.209Z,74.03
2022-12-01T12:07:13.579Z,74.04
2022-12-01T12:09:54.643Z,74.04
2022-12-01T12:12:34.212Z,74.09
2022-12-01T12:15:12.283Z,74.04
2022-12-01T12:17:55.131Z,74.09
2022-12-01T12:20:37.169Z,74.05
2022-12-01T12:23:18.135Z,74.08
2022-12-01T12:26:03.596Z,74.13
2022-12-01T12:28:39.603Z,74.14
2022-12-01T12:31:22.380Z,74.14
2022-12-01T12:34:23.713Z,74.05
2022-12-01T12:37:04.964Z,73.93
2022-12-01T12:39:51.255Z,73.95
2022-12-01T12:42:33.611Z,74.03
2022-12-01T12:45:19.127Z,74.12
2022-12-01T12:48:11.282Z,74.21
2022-12-01T12:51:05.304Z,74.21
2022-12-01T12:53:49.559Z,74.20
2022-12-01T12:56:22.080Z,74.21
2022-12-01T12:59:03.199Z,74.19
2022-12-01T13:02:09.793Z,74.13
2022-12-01T13:05:05.721Z,74.06
2022-12-01T13:07:56.751Z,74.01
2022-12-01T13:10:34.641Z,73.99
2022-12-01T13:13:19.919Z,73.99
2022-12-01T13:15:50.347Z,74.00
2022-12-01T13:18:24.846Z,74.03
2022-12-01T13:20:53.661Z,73.90
2022-12-01T13:23:22.052Z,73.93
2022-12-01T13:25:54.478Z,73.92
2022-12-01T13:28:26.243Z,73.84
2022-12-01T13:31:06.903Z,73.81
2022-12-01T13:33:36.213Z,73.67
2022-12-01T13:36:45.110Z,73.83
2022-12-01T13:39:06.633Z,74.19
2022-12-01T13:41:39.652Z,74.20
2022-12-01T13:44:30.127Z,74.08
2022-12-01T13:47:01.577Z,74.11
2022-12-01T13:49:33.787Z,74.09
2022-12-01T13:52:16.014Z,74.08
2022-12-01T13:55:00.202Z,74.11
2022-12-01T13:57:29.781Z,74.17
2022-12-01T13:59:59.576Z,74.19
2022-12-01T14:02:28.800Z,74.23
2022-12-01T14:05:15.667Z,74.29
2022-12-01T14:07:43.497Z,74.28
2022-12-01T14:10:21.344Z,74.26
2022-12-01T14:12:50.647Z,74.33
2022-12-01T14:15:42.463Z,74.29
2022-12-01T14:18:18.363Z,74.27
2022-12-01T14:20:47.703Z,74.21
2022-12-01T14:23:34.690Z,74.29
2022-12-01T14:26:13.191Z,74.22
2022-12-01T14:28:55.144Z,74.35
2022-12-01T14:31:23.460Z,74.37
2022-12-01T14:34:18.954Z,74.50
2022-12-01T14:36:53.449Z,74.11
2022-12-01T14:39:26.278Z,73.89
2022-12-01T14:42:12.674Z,73.99
2022-12-01T14:44:44.933Z,74.31
2022-12-01T14:47:11.723Z,74.12
2022-12-01T14:49:47.544Z,73.93
2022-12-01T14:52:38.987Z,73.90
2022-12-01T14:55:19.881Z,73.86
2022-12-01T14:57:50.387Z,73.86
2022-12-01T15:00:23.934Z,73.93
2022-12-01T15:02:57.370Z,73.95
2022-12-01T15:05:27.425Z,74.00
2022-12-01T15:08:18.708Z,73.97
2022-12-01T15:10:54.884Z,74.05
2022-12-01T15:13:30.538Z,74.06
2022-12-01T15:16:00.688Z,74.09
2022-12-01T15:18:37.272Z,74.20
2022-12-01T15:21:13.809Z,74.17
2022-12-01T15:24:04.850Z,74.23
2022-12-01T15:26:34.433Z,74.27
2022-12-01T15:29:15.701Z,74.33
2022-12-01T15:31:49.377Z,74.42
2022-12-01T15:34:20.169Z,74.47
2022-12-01T15:36:48.337Z,74.46
2022-12-01T15:39:21.426Z,74.52
2022-12-01T15:41:53.954Z,74.57
2022-12-01T15:44:42.668Z,74.63
2022-12-01T15:47:43.739Z,74.65
2022-12-01T15:50:26.541Z,74.71
2022-12-01T15:52:53.448Z,74.82
2022-12-01T15:55:30.452Z,74.96
2022-12-01T15:57:59.151Z,75.00
2022-12-01T16:00:26.810Z,75.02
2022-12-01T16:02:59.421Z,75.08
2022-12-01T16:05:29.329Z,75.12
2022-12-01T16:08:13.517Z,75.07
2022-12-01T16:10:40.579Z,75.12
2022-12-01T16:13:35.391Z,75.10
2022-12-01T16:16:31.605Z,75.02
2022-12-01T16:19:02.377Z,74.94
2022-12-01T16:21:33.652Z,74.96
2022-12-01T16:24:02.842Z,75.02
2022-12-01T16:26:30.600Z,75.01
2022-12-01T16:28:58.173Z,74.94
2022-12-01T16:31:27.150Z,74.93
2022-12-01T16:34:13.761Z,74.95
2022-12-01T16:36:46.010Z,75.03
2022-12-01T16:39:16.358Z,74.92
2022-12-01T16:41:47.971Z,74.91
2022-12-01T16:44:30.620Z,74.94
2022-12-01T16:46:57.384Z,74.96
2022-12-01T16:49:24.193Z,75.02
2022-12-01T16:51:56.077Z,75.02
2022-12-01T16:54:24.274Z,75.00
2022-12-01T16:56:51.396Z,75.10
2022-12-01T16:59:18.617Z,75.10
2022-12-01T17:01:45.525Z,75.09
2022-12-01T17:04:12.671Z,75.17
2022-12-01T17:06:39.530Z,75.16
2022-12-01T17:09:06.781Z,75.21
2022-12-01T17:11:33.598Z,75.27
2022-12-01T17:14:00.349Z,75.32
2022-12-01T17:16:27.700Z,75.52
2022-12-01T17:18:54.856Z,75.94
2022-12-01T17:21:22.002Z,76.05
2022-12-01T17:23:48.797Z,76.10
2022-12-01T17:26:22.816Z,76.13
2022-12-01T17:28:50.091Z,76.12
2022-12-01T17:31:17.293Z,76.18
2022-12-01T17:33:44.228Z,76.22
2022-12-01T17:36:13.217Z,76.13
2022-12-01T17:38:43.408Z,75.68
2022-12-01T17:41:16.874Z,76.08
2022-12-01T17:43:44.314Z,76.25
2022-12-01T17:46:12.778Z,76.18
2022-12-01T17:48:43.268Z,76.12
2022-12-01T17:51:13.296Z,76.08
2022-12-01T17:53:40.599Z,76.04
2022-12-01T17:56:09.691Z,76.10
2022-12-01T17:58:37.548Z,76.11
2022-12-01T18:01:05.477Z,76.14
2022-12-01T18:03:32.420Z,76.13
2022-12-01T18:06:01.602Z,76.17
2022-12-01T18:08:31.138Z,76.14
2022-12-01T18:11:03.173Z,76.14
2022-12-01T18:13:30.082Z,76.14
2022-12-01T18:15:57.444Z,76.16
2022-12-01T18:18:24.574Z,76.11
2022-12-01T18:20:51.546Z,76.11
2022-12-01T18:23:18.619Z,76.03
2022-12-01T18:25:46.992Z,76.00
2022-12-01T18:28:14.962Z,76.01
2022-12-01T18:30:42.169Z,76.07
2022-12-01T18:33:12.744Z,75.98
2022-12-01T18:35:44.883Z,76.00
2022-12-01T18:38:12.113Z,76.05
2022-12-01T18:40:39.893Z,76.03
2022-12-01T18:43:07.079Z,76.02
2022-12-01T18:45:33.913Z,76.03
2022-12-01T18:48:00.954Z,76.01
2022-12-01T18:50:28.221Z,76.01
2022-12-01T18:52:55.068Z,76.05
2022-12-01T18:55:22.195Z,75.99
2022-12-01T18:57:48.997Z,75.99
2022-12-01T19:00:16.511Z,75.89
2022-12-01T19:02:43.971Z,75.45
2022-12-01T19:05:11.351Z,75.36
2022-12-01T19:07:38.667Z,75.31
2022-12-01T19:10:06.603Z,75.22
2022-12-01T19:12:39.360Z,75.26
2022-12-01T19:15:08.947Z,75.38
2022-12-01T19:17:36.263Z,75.23
2022-12-01T19:20:05.112Z,75.21
2022-12-01T19:22:33.148Z,75.16
2022-12-01T19:25:00.570Z,75.26
2022-12-01T19:27:29.002Z,75.27
2022-12-01T19:29:56.312Z,75.30
2022-12-01T19:32:23.442Z,75.37
2022-12-01T19:34:50.730Z,75.41
2022-12-01T19:37:22.461Z,75.43
2022-12-01T19:39:49.901Z,75.84
2022-12-01T19:42:17.177Z,75.63
2022-12-01T19:44:44.420Z,75.50
2022-12-01T19:47:11.735Z,75.53
2022-12-01T19:49:38.597Z,75.71
2022-12-01T19:52:08.629Z,75.59
2022-12-01T19:54:38.617Z,75.55
2022-12-01T19:57:05.545Z,75.52
2022-12-01T19:59:32.579Z,75.49
2022-12-01T20:01:59.870Z,75.46
2022-12-01T20:04:27.245Z,75.49
2022-12-01T20:06:54.532Z,75.47
2022-12-01T20:09:21.733Z,75.41
2022-12-01T20:11:49.033Z,75.37
2022-12-01T20:14:22.221Z,75.35
2022-12-01T20:16:49.733Z,75.33
2022-12-01T20:19:19.820Z,75.35
2022-12-01T20:21:47.352Z,75.36
2022-12-01T20:24:17.831Z,75.39
2022-12-01T20:26:49.021Z,75.40
2022-12-01T20:29:26.869Z,75.33
2022-12-01T20:31:57.976Z,75.39
2022-12-01T20:34:34.377Z,75.32
2022-12-01T20:37:03.011Z,75.50
2022-12-01T20:39:32.915Z,75.55
2022-12-01T20:42:00.782Z,75.55
2022-12-01T20:44:28.010Z,75.56
2022-12-01T20:46:55.420Z,75.66
2022-12-01T20:49:23.022Z,75.84
2022-12-01T20:51:50.347Z,76.27
2022-12-01T20:54:27.715Z,75.90
2022-12-01T20:56:55.892Z,75.86
2022-12-01T20:59:23.683Z,75.90
2022-12-01T21:01:50.997Z,75.96
2022-12-01T21:04:17.766Z,75.96
2022-12-01T21:06:44.584Z,75.97
2022-12-01T21:09:13.439Z,75.93
2022-12-01T21:12:07.077Z,76.03
2022-12-01T21:14:41.912Z,76.02
2022-12-01T21:17:34.231Z,76.03
2022-12-01T21:20:21.986Z,76.09
2022-12-01T21:22:50.099Z,76.14
2022-12-01T21:25:22.804Z,76.10
2022-12-01T21:27:50.223Z,76.10
2022-12-01T21:30:21.979Z,76.21
2022-12-01T21:32:49.882Z,76.19
2022-12-01T21:35:22.238Z,76.14
2022-12-01T21:37:49.519Z,76.12
2022-12-01T21:40:22.683Z,76.22
2022-12-01T21:42:50.069Z,76.26
2022-12-01T21:45:32.121Z,76.23
2022-12-01T21:48:17.161Z,76.40
2022-12-01T21:50:49.256Z,76.25
2022-12-01T21:53:20.533Z,76.19
2022-12-01T21:55:47.989Z,76.30
2022-12-01T21:58:30.187Z,76.55
2022-12-01T22:00:58.978Z,76.38
2022-12-01T22:03:45.104Z,76.41
2022-12-01T22:06:34.678Z,76.61
2022-12-01T22:09:12.248Z,76.40
2022-12-01T22:11:39.052Z,76.46
2022-12-01T22:14:08.781Z,76.69
2022-12-01T22:16:40.528Z,76.74
2022-12-01T22:19:16.439Z,76.91
2022-12-01T22:21:48.135Z,77.08
2022-12-01T22:24:22.018Z,77.24
2022-12-01T22:27:03.265Z,77.14
2022-12-01T22:29:33.859Z,77.33
2022-12-01T22:32:23.858Z,77.18
2022-12-01T22:34:57.671Z,77.40
2022-12-01T22:37:35.168Z,77.39
2022-12-01T22:40:02.296Z,76.91
2022-12-01T22:42:34.651Z,76.82
2022-12-01T22:45:14.906Z,76.79
2022-12-01T22:47:41.654Z,76.80
2022-12-01T22:50:27.207Z,76.76
2022-12-01T22:52:55.926Z,76.71
2022-12-01T22:55:22.757Z,76.65
2022-12-01T22:57:49.487Z,76.69
2022-12-01T23:00:19.137Z,76.71
2022-12-01T23:02:48.534Z,76.79
2022-12-01T23:05:27.518Z,76.86
2022-12-01T23:07:55.332Z,76.80
2022-12-01T23:10:33.737Z,76.81
2022-12-01T23:13:08.781Z,76.75
2022-12-01T23:15:40.543Z,76.67
2022-12-01T23:18:28.095Z,76.65
2022-12-01T23:21:01.942Z,76.72
2022-12-01T23:23:30.966Z,76.67
2022-12-01T23:25:58.945Z,76.62
2022-12-01T23:28:25.670Z,76.58
2022-12-01T23:30:56.014Z,76.54
2022-12-01T23:33:25.981Z,76.57
2022-12-01T23:36:07.015Z,76.61
2022-12-01T23:38:39.827Z,77.12
2022-12-01T23:41:12.577Z,77.18
2022-12-01T23:43:42.806Z,77.15
2022-12-01T23:46:22.398Z,76.82
2022-12-01T23:49:04.874Z,76.62
2022-12-01T23:51:36.167Z,76.48
2022-12-01T23:54:29.012Z,76.60
2022-12-01T23:56:58.190Z,76.56
2022-12-01T23:59:25.583Z,76.55
